Time;durP1;ratioP1;P1;durP2;ratioP2;P2;SDS_P1;SDS_P2;PMS_P1;PMS_P2;Temp;Humidity;BMP_temperature;BMP_pressure;BME280_temperature;BME280_humidity;BME280_pressure;Samples;Min_cycle;Max_cycle;Signal;HPM_P1;HPM_P2
2023/07/19 00:02:10;;;;;;;0.00;0.00;;;20.10;99.90;;;;;;5094500;28;20034;-73
2023/07/19 00:04:35;;;;;;;0.00;0.00;;;20.30;99.90;;;;;;5094895;28;20069;-71
2023/07/19 00:07:01;;;;;;;0.00;0.00;;;20.20;99.90;;;;;;5094691;28;20464;-71
2023/07/19 00:09:27;;;;;;;0.00;0.00;;;19.90;99.90;;;;;;5095171;28;20438;-71
2023/07/19 00:11:53;;;;;;;0.00;0.00;;;20.20;99.90;;;;;;5094698;28;20020;-73
2023/07/19 00:14:19;;;;;;;0.00;0.00;;;20.20;99.90;;;;;;5094740;28;20024;-80
2023/07/19 00:16:45;;;;;;;0.00;0.00;;;20.20;99.90;;;;;;5094519;28;20075;-80
2023/07/19 00:19:10;;;;;;;0.00;0.00;;;20.40;99.90;;;;;;5094773;28;20028;-78
2023/07/19 00:21:36;;;;;;;0.10;0.10;;;20.50;99.90;;;;;;5092946;28;20028;-80
2023/07/19 00:24:02;;;;;;;0.00;0.00;;;20.40;99.90;;;;;;5094488;28;20031;-79
2023/07/19 00:26:27;;;;;;;0.20;0.20;;;20.50;99.90;;;;;;5095047;28;20055;-80
2023/07/19 00:28:53;;;;;;;0.20;0.20;;;20.20;99.90;;;;;;5094503;28;20561;-80
2023/07/19 00:31:20;;;;;;;0.00;0.00;;;19.50;99.90;;;;;;5093205;28;20070;-80
2023/07/19 00:33:46;;;;;;;7.95;3.47;;;19.40;99.90;;;;;;5092826;28;20059;-80
2023/07/19 00:36:14;;;;;;;0.00;0.00;;;19.30;99.90;;;;;;5092794;28;20028;-80
2023/07/19 00:38:40;;;;;;;0.00;0.00;;;19.70;99.90;;;;;;5094338;28;20132;-72
2023/07/19 00:41:07;;;;;;;0.00;0.00;;;20.00;99.90;;;;;;5094177;28;20023;-71
2023/07/19 00:43:33;;;;;;;0.10;0.10;;;19.90;99.90;;;;;;5084177;28;20405;-71
2023/07/19 00:45:59;;;;;;;0.00;0.00;;;19.80;99.90;;;;;;5089615;28;20048;-71
2023/07/19 00:48:26;;;;;;;1.27;1.17;;;19.60;99.90;;;;;;5094183;28;20039;-71
2023/07/19 00:50:53;;;;;;;0.00;0.00;;;19.70;99.90;;;;;;5093740;28;20020;-71
2023/07/19 00:53:21;;;;;;;0.10;0.10;;;19.50;99.90;;;;;;5093831;28;20036;-71
2023/07/19 00:55:49;;;;;;;0.10;0.10;;;19.40;99.90;;;;;;5093748;28;20487;-71
2023/07/19 00:58:16;;;;;;;0.30;0.30;;;19.30;99.90;;;;;;5093856;28;20495;-71
2023/07/19 01:00:42;;;;;;;0.00;0.00;;;19.30;99.90;;;;;;5093900;28;20028;-71
2023/07/19 01:03:08;;;;;;;0.10;0.10;;;19.70;99.90;;;;;;5092143;28;20028;-71
2023/07/19 01:05:35;;;;;;;0.10;0.10;;;20.00;99.90;;;;;;5093574;28;20028;-71
2023/07/19 01:08:00;;;;;;;0.00;0.00;;;20.00;99.90;;;;;;5093471;28;20498;-71
2023/07/19 01:10:26;;;;;;;0.00;0.00;;;19.70;99.90;;;;;;5075728;28;20356;-72
2023/07/19 01:13:08;;;;;;;0.00;0.00;;;19.70;99.90;;;;;;5093489;28;20133;-71
2023/07/19 01:15:35;;;;;;;0.00;0.00;;;20.00;99.90;;;;;;5080408;28;20068;-71
2023/07/19 01:18:02;;;;;;;0.00;0.00;;;19.80;99.90;;;;;;5093461;28;20444;-71
2023/07/19 01:20:28;;;;;;;0.00;0.00;;;20.30;99.90;;;;;;5093054;28;20426;-72
2023/07/19 01:22:57;;;;;;;0.17;0.17;;;19.90;99.90;;;;;;5092036;28;20089;-71
2023/07/19 01:25:23;;;;;;;0.03;0.03;;;19.70;99.90;;;;;;5093220;28;20472;-72
2023/07/19 01:27:50;;;;;;;0.10;0.10;;;19.50;99.90;;;;;;5093325;28;20073;-71
2023/07/19 01:30:17;;;;;;;0.20;0.20;;;19.50;99.90;;;;;;5093375;28;20093;-71
2023/07/19 01:32:44;;;;;;;0.10;0.10;;;19.20;99.90;;;;;;5091719;28;20054;-71
2023/07/19 01:35:10;;;;;;;0.10;0.10;;;19.50;99.90;;;;;;5091488;28;20020;-71
2023/07/19 01:37:36;;;;;;;0.00;0.00;;;19.50;99.90;;;;;;5093295;28;20020;-70
2023/07/19 01:40:04;;;;;;;0.00;0.00;;;19.80;99.90;;;;;;5081382;28;20043;-71
2023/07/19 01:42:31;;;;;;;0.08;0.08;;;20.00;99.90;;;;;;5072885;28;20056;-71
2023/07/19 01:45:01;;;;;;;0.00;0.00;;;20.10;99.90;;;;;;5076132;28;20138;-71
2023/07/19 01:47:27;;;;;;;0.00;0.00;;;19.90;99.90;;;;;;5092957;28;20115;-71
2023/07/19 01:49:53;;;;;;;0.00;0.00;;;19.70;99.90;;;;;;5079632;28;20038;-72
2023/07/19 01:52:18;;;;;;;0.00;0.00;;;19.60;99.90;;;;;;5093194;28;20024;-71
2023/07/19 01:54:44;;;;;;;0.00;0.00;;;19.70;99.90;;;;;;5091684;28;20606;-72
2023/07/19 01:57:12;;;;;;;0.00;0.00;;;19.70;99.90;;;;;;5081297;28;20047;-72
2023/07/19 01:59:38;;;;;;;0.00;0.00;;;19.50;99.90;;;;;;5088026;28;20024;-71
2023/07/19 02:02:04;;;;;;;0.00;0.00;;;19.60;99.90;;;;;;5091539;28;20115;-71
2023/07/19 02:04:30;;;;;;;0.00;0.00;;;19.90;99.90;;;;;;5092344;28;20515;-71
2023/07/19 02:06:56;;;;;;;0.00;0.00;;;19.80;99.90;;;;;;5091661;28;20020;-71
2023/07/19 02:09:23;;;;;;;1.35;1.05;;;20.00;99.90;;;;;;5091508;28;20042;-71
2023/07/19 02:11:48;;;;;;;0.10;0.10;;;20.10;99.90;;;;;;5091614;28;20103;-72
2023/07/19 02:14:14;;;;;;;0.00;0.00;;;19.70;99.90;;;;;;5082591;28;20500;-72
2023/07/19 02:16:41;;;;;;;0.00;0.00;;;19.70;99.90;;;;;;5087587;28;20025;-71
2023/07/19 02:19:08;;;;;;;0.00;0.00;;;19.50;99.90;;;;;;5091053;28;20042;-71
2023/07/19 02:21:34;;;;;;;2.78;0.85;;;19.70;99.90;;;;;;5092654;28;20020;-72
2023/07/19 02:23:59;;;;;;;0.03;0.03;;;19.60;99.90;;;;;;5092468;28;20024;-71
2023/07/19 02:26:25;;;;;;;0.08;0.08;;;19.60;99.90;;;;;;5095844;28;20380;-71
2023/07/19 02:28:51;;;;;;;0.08;0.08;;;19.90;99.90;;;;;;5095377;28;20020;-71
2023/07/19 02:31:18;;;;;;;0.20;0.20;;;19.90;99.90;;;;;;5096688;28;20020;-71
2023/07/19 02:33:43;;;;;;;0.30;0.30;;;20.30;99.90;;;;;;5094863;28;20107;-70
2023/07/19 02:36:13;;;;;;;0.00;0.00;;;19.90;99.90;;;;;;5095600;28;20131;-71
2023/07/19 02:38:39;;;;;;;0.10;0.10;;;19.70;99.90;;;;;;5095304;28;20028;-71
2023/07/19 02:41:06;;;;;;;0.00;0.00;;;19.70;99.90;;;;;;5095305;28;20043;-71
2023/07/19 02:43:32;;;;;;;0.00;0.00;;;19.70;99.90;;;;;;5095179;28;20036;-71
2023/07/19 02:45:58;;;;;;;0.00;0.00;;;19.30;99.90;;;;;;5095011;28;20024;-71
2023/07/19 02:48:24;;;;;;;0.00;0.00;;;19.30;99.90;;;;;;5084239;28;20547;-71
2023/07/19 02:50:51;;;;;;;0.00;0.00;;;19.20;99.90;;;;;;5092810;28;20028;-72
2023/07/19 02:53:17;;;;;;;0.10;0.10;;;19.10;99.90;;;;;;5094971;28;20412;-71
2023/07/19 02:55:44;;;;;;;0.10;0.10;;;19.10;99.90;;;;;;5095090;28;20039;-71
2023/07/19 02:58:10;;;;;;;0.00;0.00;;;19.20;99.90;;;;;;5095087;28;20494;-71
2023/07/19 03:00:40;;;;;;;0.00;0.00;;;19.20;99.90;;;;;;5095935;28;20044;-71
2023/07/19 03:03:07;;;;;;;0.10;0.10;;;19.10;99.90;;;;;;5095880;28;20472;-71
2023/07/19 03:05:34;;;;;;;0.40;0.40;;;19.30;99.90;;;;;;5094884;28;20074;-71
2023/07/19 03:08:01;;;;;;;0.10;0.10;;;19.30;99.90;;;;;;5095889;28;20403;-70
2023/07/19 03:10:27;;;;;;;0.00;0.00;;;19.60;99.90;;;;;;5094850;28;20023;-72
2023/07/19 03:12:53;;;;;;;0.00;0.00;;;19.70;99.90;;;;;;5095861;28;20024;-71
2023/07/19 03:15:19;;;;;;;0.20;0.20;;;19.70;99.90;;;;;;5095848;28;20039;-71
2023/07/19 03:17:45;;;;;;;0.10;0.10;;;19.50;99.90;;;;;;5095052;28;20169;-71
2023/07/19 03:20:11;;;;;;;0.00;0.00;;;19.20;99.90;;;;;;5095083;28;20020;-79
2023/07/19 03:22:38;;;;;;;0.00;0.00;;;19.50;99.90;;;;;;5095835;28;20028;-79
2023/07/19 03:25:05;;;;;;;2.20;0.38;;;19.50;99.90;;;;;;5094592;28;20120;-80
2023/07/19 03:27:31;;;;;;;3.40;2.63;;;19.20;99.90;;;;;;5095797;28;20384;-79
2023/07/19 03:29:57;;;;;;;0.10;0.10;;;19.10;99.90;;;;;;5093802;28;20020;-79
2023/07/19 03:32:23;;;;;;;0.00;0.00;;;19.20;99.90;;;;;;5094430;28;20383;-80
2023/07/19 03:34:49;;;;;;;0.30;0.30;;;19.50;99.90;;;;;;5093986;28;20035;-79
2023/07/19 03:37:14;;;;;;;0.05;0.05;;;19.20;99.90;;;;;;5093117;28;20083;-79
2023/07/19 03:39:40;;;;;;;0.00;0.00;;;19.50;99.90;;;;;;5094027;28;20415;-79
2023/07/19 03:42:07;;;;;;;0.00;0.00;;;19.70;99.90;;;;;;5093860;28;20039;-80
2023/07/19 03:44:32;;;;;;;0.00;0.00;;;19.80;99.90;;;;;;5093627;28;20024;-80
2023/07/19 03:47:00;;;;;;;1.42;1.13;;;19.90;99.90;;;;;;5093929;28;20036;-80
2023/07/19 03:49:26;;;;;;;0.00;0.00;;;19.90;99.90;;;;;;5079495;28;20149;-77
2023/07/19 03:51:52;;;;;;;0.90;0.57;;;20.00;99.90;;;;;;5093962;28;20035;-79
2023/07/19 03:54:19;;;;;;;0.50;0.50;;;19.50;99.90;;;;;;5093581;28;20024;-80
2023/07/19 03:56:45;;;;;;;0.25;0.25;;;19.60;99.90;;;;;;5076794;28;20017;-80
2023/07/19 03:59:11;;;;;;;0.25;0.25;;;19.50;99.90;;;;;;5076568;28;20032;-80
2023/07/19 04:01:37;;;;;;;0.88;0.80;;;18.80;99.90;;;;;;5093212;28;20456;-79
2023/07/19 04:04:03;;;;;;;4.07;0.57;;;19.00;99.90;;;;;;5093396;28;20028;-79
2023/07/19 04:06:30;;;;;;;2.72;1.38;;;19.00;99.90;;;;;;5094163;28;20099;-79
2023/07/19 04:08:56;;;;;;;0.63;0.63;;;18.80;99.90;;;;;;5094292;28;20433;-76
2023/07/19 04:11:22;;;;;;;0.30;0.30;;;18.70;99.90;;;;;;5092272;28;20065;-79
2023/07/19 04:13:50;;;;;;;1.15;0.63;;;18.90;99.90;;;;;;5093696;28;20024;-79
2023/07/19 04:16:17;;;;;;;0.10;0.10;;;19.00;99.90;;;;;;5092853;28;20465;-79
2023/07/19 04:18:43;;;;;;;0.00;0.00;;;18.80;99.90;;;;;;5093336;28;20392;-79
2023/07/19 04:21:09;;;;;;;0.47;0.47;;;19.00;99.90;;;;;;5092809;28;20020;-77
2023/07/19 04:23:36;;;;;;;0.15;0.15;;;18.90;99.90;;;;;;5079037;28;20111;-78
2023/07/19 04:26:05;;;;;;;0.38;0.35;;;19.00;99.90;;;;;;5092990;28;20394;-78
2023/07/19 04:28:31;;;;;;;0.17;0.17;;;18.80;99.90;;;;;;5092714;28;20032;-79
2023/07/19 04:30:57;;;;;;;1.48;0.38;;;18.80;99.90;;;;;;5092951;28;20392;-80
2023/07/19 04:33:23;;;;;;;0.00;0.00;;;18.90;99.90;;;;;;5092788;28;20032;-76
2023/07/19 04:35:50;;;;;;;0.05;0.05;;;18.80;99.90;;;;;;5092992;28;20020;-79
2023/07/19 04:38:16;;;;;;;0.15;0.15;;;18.50;99.90;;;;;;5092866;28;20050;-73
2023/07/19 04:40:42;;;;;;;0.00;0.00;;;18.80;99.90;;;;;;5092841;28;20468;-78
2023/07/19 04:43:09;;;;;;;8.77;0.28;;;18.80;99.90;;;;;;5092559;28;20036;-78
2023/07/19 04:45:35;;;;;;;1.05;1.00;;;18.70;99.90;;;;;;5092938;28;20028;-72
2023/07/19 04:48:01;;;;;;;0.70;0.70;;;18.70;99.90;;;;;;5085672;28;20086;-71
2023/07/19 04:50:27;;;;;;;1.45;0.85;;;19.00;99.90;;;;;;5069303;28;20032;-71
2023/07/19 04:52:53;;;;;;;0.00;0.00;;;18.60;99.90;;;;;;5092580;28;20530;-75
2023/07/19 04:55:20;;;;;;;0.00;0.00;;;18.70;99.90;;;;;;5081212;28;20115;-79
2023/07/19 04:57:46;;;;;;;1.63;0.52;;;18.80;99.90;;;;;;5089750;28;20016;-76
2023/07/19 05:00:14;;;;;;;0.47;0.47;;;18.70;99.90;;;;;;5094062;28;20123;-77
2023/07/19 05:02:41;;;;;;;0.00;0.00;;;18.40;99.90;;;;;;5092098;28;20028;-79
2023/07/19 05:05:08;;;;;;;0.00;0.00;;;18.90;99.90;;;;;;5092624;28;20486;-72
2023/07/19 05:07:34;;;;;;;0.00;0.00;;;19.20;99.90;;;;;;5092508;28;20464;-70
2023/07/19 05:10:02;;;;;;;0.35;0.35;;;19.10;99.90;;;;;;5092564;28;20024;-71
2023/07/19 05:12:30;;;;;;;0.00;0.00;;;19.00;99.90;;;;;;5092031;28;20021;-70
2023/07/19 05:14:56;;;;;;;0.10;0.10;;;19.10;99.90;;;;;;5092392;28;20387;-70
2023/07/19 05:17:22;;;;;;;1.05;0.47;;;18.90;99.90;;;;;;5092253;28;20024;-70
2023/07/19 05:19:48;;;;;;;0.57;0.25;;;18.90;99.90;;;;;;5092257;28;20032;-72
2023/07/19 05:22:14;;;;;;;0.00;0.00;;;18.90;99.90;;;;;;5092098;28;20043;-70
2023/07/19 05:24:40;;;;;;;1.23;1.10;;;18.90;99.90;;;;;;5092023;28;20036;-70
2023/07/19 05:27:06;;;;;;;0.00;0.00;;;18.90;99.90;;;;;;5093139;28;20062;-71
2023/07/19 05:29:33;;;;;;;0.52;0.52;;;18.80;99.90;;;;;;5093354;28;20556;-71
2023/07/19 05:31:59;;;;;;;0.00;0.00;;;18.90;99.90;;;;;;5093540;28;20035;-70
2023/07/19 05:34:25;;;;;;;0.20;0.20;;;18.90;99.90;;;;;;5093367;28;20464;-70
2023/07/19 05:36:50;;;;;;;0.40;0.40;;;19.20;99.90;;;;;;5093084;28;20023;-73
2023/07/19 05:39:16;;;;;;;0.20;0.20;;;19.00;99.90;;;;;;5085941;28;20034;-71
2023/07/19 05:41:42;;;;;;;1.85;0.55;;;18.90;99.90;;;;;;5075814;28;20024;-72
2023/07/19 05:44:08;;;;;;;0.55;0.25;;;18.70;99.90;;;;;;5067642;28;20032;-70
2023/07/19 05:46:37;;;;;;;0.40;0.40;;;18.90;99.90;;;;;;5079696;28;20101;-71
2023/07/19 05:49:04;;;;;;;0.10;0.10;;;19.00;99.90;;;;;;5083905;28;20415;-71
2023/07/19 05:51:29;;;;;;;0.90;0.40;;;18.90;99.90;;;;;;5088575;28;20124;-70
2023/07/19 05:53:55;;;;;;;0.22;0.22;;;19.10;99.90;;;;;;5088662;28;20028;-71
2023/07/19 05:56:22;;;;;;;0.10;0.10;;;18.90;99.90;;;;;;5088288;28;20024;-73
2023/07/19 05:58:48;;;;;;;0.30;0.30;;;19.10;99.90;;;;;;5087578;28;20040;-71
2023/07/19 06:01:17;;;;;;;0.03;0.03;;;19.10;99.90;;;;;;5088314;28;20126;-70
2023/07/19 06:03:44;;;;;;;0.08;0.08;;;19.10;99.90;;;;;;5078973;28;20522;-71
2023/07/19 06:06:10;;;;;;;0.00;0.00;;;19.50;99.90;;;;;;5087488;28;20020;-71
2023/07/19 06:08:37;;;;;;;0.20;0.20;;;19.30;99.90;;;;;;5088178;28;20482;-71
2023/07/19 06:11:02;;;;;;;0.10;0.10;;;19.40;99.90;;;;;;5086984;28;20039;-71
2023/07/19 06:13:28;;;;;;;0.10;0.10;;;19.30;99.90;;;;;;5085439;28;20450;-71
2023/07/19 06:15:56;;;;;;;0.45;0.45;;;19.50;99.90;;;;;;5088890;28;20020;-71
2023/07/19 06:18:22;;;;;;;0.40;0.40;;;19.20;99.90;;;;;;5088241;28;20464;-73
2023/07/19 06:20:48;;;;;;;1.25;0.43;;;19.60;99.90;;;;;;5088546;28;20491;-75
2023/07/19 06:23:14;;;;;;;0.47;0.30;;;19.80;99.90;;;;;;5088319;28;20118;-72
2023/07/19 06:25:44;;;;;;;0.10;0.10;;;19.80;99.90;;;;;;5077298;28;20036;-72
2023/07/19 06:28:11;;;;;;;0.77;0.77;;;19.80;99.90;;;;;;5087137;28;20028;-73
2023/07/19 06:30:37;;;;;;;0.00;0.00;;;19.20;99.90;;;;;;5088263;28;20043;-72
2023/07/19 06:33:02;;;;;;;0.00;0.00;;;19.40;99.90;;;;;;5087113;28;20503;-75
2023/07/19 06:35:28;;;;;;;0.10;0.10;;;19.70;99.90;;;;;;5088437;28;20161;-76
2023/07/19 06:37:54;;;;;;;0.05;0.05;;;20.00;99.90;;;;;;5088595;28;20076;-78
2023/07/19 06:40:19;;;;;;;0.00;0.00;;;19.80;99.90;;;;;;5086022;28;20116;-77
2023/07/19 06:42:45;;;;;;;0.35;0.35;;;20.10;99.90;;;;;;5087888;28;20024;-78
2023/07/19 06:45:11;;;;;;;0.70;0.30;;;19.70;99.90;;;;;;5092098;28;20066;-72
2023/07/19 06:47:37;;;;;;;0.05;0.05;;;19.60;99.90;;;;;;5088729;28;20021;-71
2023/07/19 06:50:03;;;;;;;0.65;0.57;;;19.70;99.90;;;;;;5080807;28;20380;-72
2023/07/19 06:52:29;;;;;;;0.75;0.70;;;19.30;99.90;;;;;;5091789;28;20031;-70
2023/07/19 06:54:55;;;;;;;0.25;0.25;;;19.50;99.90;;;;;;5090575;28;20032;-71
2023/07/19 06:57:21;;;;;;;1.75;1.30;;;19.60;99.90;;;;;;5091613;28;20040;-70
2023/07/19 06:59:49;;;;;;;6.70;1.83;;;19.20;99.90;;;;;;5092430;28;20451;-71
2023/07/19 07:02:18;;;;;;;0.25;0.25;;;19.10;99.90;;;;;;5091925;28;20035;-71
2023/07/19 07:04:47;;;;;;;0.57;0.57;;;19.10;99.90;;;;;;5092174;28;20032;-71
2023/07/19 07:07:15;;;;;;;0.00;0.00;;;19.50;99.90;;;;;;5092177;28;20035;-71
2023/07/19 07:09:44;;;;;;;1.50;1.40;;;19.40;99.90;;;;;;5090877;28;20024;-71
2023/07/19 07:12:13;;;;;;;8.00;1.40;;;19.70;99.90;;;;;;5093326;28;20061;-71
2023/07/19 07:14:39;;;;;;;0.20;0.20;;;19.40;99.90;;;;;;5094363;28;20135;-71
2023/07/19 07:17:07;;;;;;;0.20;0.20;;;19.70;99.90;;;;;;5096013;28;20016;-70
2023/07/19 07:19:33;;;;;;;3.08;1.88;;;19.90;99.90;;;;;;5095672;28;20071;-71
2023/07/19 07:21:59;;;;;;;2.05;1.00;;;19.80;99.90;;;;;;5095537;28;20020;-71
2023/07/19 07:24:25;;;;;;;1.58;1.08;;;19.60;99.90;;;;;;5095579;28;20035;-72
2023/07/19 07:26:51;;;;;;;0.25;0.25;;;19.70;99.90;;;;;;5095665;28;20103;-71
2023/07/19 07:29:16;;;;;;;0.00;0.00;;;19.90;99.90;;;;;;5095537;28;20107;-71
2023/07/19 07:31:42;;;;;;;2.60;1.13;;;20.10;99.90;;;;;;5095464;28;20046;-71
2023/07/19 07:34:09;;;;;;;0.10;0.10;;;20.40;99.90;;;;;;5095536;28;20036;-71
2023/07/19 07:36:35;;;;;;;3.30;0.82;;;20.10;99.90;;;;;;5095130;28;20089;-71
2023/07/19 07:39:01;;;;;;;0.40;0.40;;;20.20;99.90;;;;;;5095480;28;20016;-71
2023/07/19 07:41:27;;;;;;;1.20;0.47;;;20.30;99.90;;;;;;5095466;28;20508;-71
2023/07/19 07:43:52;;;;;;;0.00;0.00;;;20.30;99.90;;;;;;5094016;28;20040;-71
2023/07/19 07:46:18;;;;;;;0.75;0.30;;;20.20;99.90;;;;;;5095199;28;20066;-71
2023/07/19 07:48:44;;;;;;;0.93;0.52;;;20.20;99.90;;;;;;5082382;28;20038;-71
2023/07/19 07:51:11;;;;;;;0.77;0.35;;;20.40;99.90;;;;;;5093793;28;20112;-71
2023/07/19 07:53:36;;;;;;;1.00;0.10;;;20.50;99.90;;;;;;5094870;28;20028;-71
2023/07/19 07:56:02;;;;;;;10.20;0.98;;;20.90;99.90;;;;;;5094661;28;20140;-72
2023/07/19 07:58:28;;;;;;;0.30;0.30;;;20.90;99.90;;;;;;5095352;28;20036;-71
2023/07/19 08:00:54;;;;;;;1.65;0.57;;;20.70;99.90;;;;;;5094805;28;20032;-71
2023/07/19 08:03:20;;;;;;;9.65;1.70;;;20.90;99.90;;;;;;5094876;28;20081;-71
2023/07/19 08:05:45;;;;;;;0.35;0.20;;;21.20;99.90;;;;;;5093546;28;20471;-71
2023/07/19 08:08:11;;;;;;;0.20;0.10;;;21.00;99.90;;;;;;5095005;28;20020;-70
2023/07/19 08:10:39;;;;;;;1.08;0.88;;;21.20;99.90;;;;;;5094889;28;20419;-71
2023/07/19 08:13:05;;;;;;;0.00;0.00;;;21.20;99.90;;;;;;5094666;28;20036;-71
2023/07/19 08:15:31;;;;;;;0.30;0.30;;;21.10;99.90;;;;;;5094831;28;20028;-71
2023/07/19 08:17:57;;;;;;;0.00;0.00;;;21.20;99.90;;;;;;5093445;28;20495;-71
2023/07/19 08:20:24;;;;;;;0.20;0.20;;;21.50;99.90;;;;;;5094516;28;20085;-70
2023/07/19 08:22:49;;;;;;;0.00;0.00;;;21.60;99.90;;;;;;5094069;28;20026;-70
2023/07/19 08:25:16;;;;;;;0.13;0.13;;;21.80;99.90;;;;;;5094358;28;20115;-71
2023/07/19 08:27:44;;;;;;;0.68;0.35;;;21.70;99.90;;;;;;5094517;28;20016;-71
2023/07/19 08:30:15;;;;;;;1.48;0.95;;;21.80;99.90;;;;;;5094470;28;20024;-70
2023/07/19 08:32:48;;;;;;;0.35;0.28;;;21.60;99.90;;;;;;5094694;28;20369;-71
2023/07/19 08:35:15;;;;;;;0.10;0.10;;;21.50;99.90;;;;;;5094218;28;20032;-71
2023/07/19 08:37:43;;;;;;;1.10;0.82;;;21.70;99.90;;;;;;5094246;28;20056;-71
2023/07/19 08:40:14;;;;;;;0.70;0.63;;;21.90;99.90;;;;;;5094257;28;20074;-71
2023/07/19 08:42:41;;;;;;;0.05;0.05;;;22.00;99.90;;;;;;5094070;28;20032;-71
2023/07/19 08:45:08;;;;;;;0.30;0.30;;;22.20;99.90;;;;;;5094309;28;20036;-71
2023/07/19 08:47:37;;;;;;;0.10;0.10;;;22.40;99.90;;;;;;5090621;28;20112;-70
2023/07/19 08:50:04;;;;;;;0.10;0.10;;;22.40;99.90;;;;;;5083642;28;20063;-70
2023/07/19 08:52:32;;;;;;;3.67;1.30;;;22.30;99.90;;;;;;5093776;28;20468;-71
2023/07/19 08:54:59;;;;;;;0.20;0.20;;;22.10;99.90;;;;;;5094229;28;20024;-71
2023/07/19 08:57:25;;;;;;;2.50;0.57;;;22.20;99.90;;;;;;5093717;28;20059;-70
2023/07/19 08:59:50;;;;;;;1.15;0.60;;;22.00;99.90;;;;;;5094110;28;20043;-70
2023/07/19 09:02:16;;;;;;;0.00;0.00;;;21.90;99.90;;;;;;5093663;28;20036;-70
2023/07/19 09:05:05;;;;;;;0.13;0.13;;;22.20;99.90;;;;;;5093235;28;20032;-71
2023/07/19 09:07:33;;;;;;;0.00;0.00;;;22.10;99.90;;;;;;5093655;28;20024;-71
2023/07/19 09:09:59;;;;;;;2.08;0.20;;;22.30;99.90;;;;;;5092355;28;20024;-71
2023/07/19 09:12:25;;;;;;;0.10;0.10;;;22.60;99.90;;;;;;5093997;28;20372;-72
2023/07/19 09:14:50;;;;;;;0.20;0.20;;;22.50;99.90;;;;;;5093759;28;20120;-70
2023/07/19 09:17:19;;;;;;;0.65;0.50;;;22.10;99.90;;;;;;5093434;28;20476;-73
2023/07/19 09:19:46;;;;;;;0.43;0.43;;;22.10;99.90;;;;;;5093198;28;20024;-71
2023/07/19 09:22:15;;;;;;;0.08;0.08;;;21.80;99.90;;;;;;5093519;28;20054;-70
2023/07/19 09:24:54;;;;;;;0.20;0.20;;;21.80;99.90;;;;;;5093351;28;20106;-71
2023/07/19 09:27:26;;;;;;;0.20;0.20;;;22.00;99.90;;;;;;5093478;28;20036;-70
2023/07/19 09:29:52;;;;;;;;;;;22.20;99.90;;;;;;5093794;28;20028;-70
2023/07/19 09:32:17;;;;;;;0.10;0.10;;;22.40;99.90;;;;;;5092894;28;20291;-71
2023/07/19 09:34:44;;;;;;;0.00;0.00;;;22.60;99.90;;;;;;5092868;28;20145;-70
2023/07/19 09:37:10;;;;;;;0.00;0.00;;;23.00;99.90;;;;;;5093181;28;20043;-72
2023/07/19 09:39:37;;;;;;;3.88;0.75;;;23.30;99.90;;;;;;5093239;28;20032;-71
2023/07/19 09:42:04;;;;;;;0.10;0.10;;;22.70;99.90;;;;;;5091830;28;20031;-71
2023/07/19 09:44:32;;;;;;;4.18;1.02;;;22.40;99.90;;;;;;5093053;28;20035;-71
2023/07/19 09:47:00;;;;;;;1.35;0.80;;;22.40;99.90;;;;;;5091403;28;20028;-71
2023/07/19 09:49:26;;;;;;;0.00;0.00;;;22.50;99.90;;;;;;5078824;28;20020;-71
2023/07/19 09:51:55;;;;;;;4.20;0.38;;;22.70;99.90;;;;;;5093200;28;20069;-71
2023/07/19 09:54:24;;;;;;;0.00;0.00;;;22.80;99.90;;;;;;5092821;28;20020;-73
2023/07/19 09:56:50;;;;;;;0.00;0.00;;;23.10;99.90;;;;;;5092702;28;20044;-71
2023/07/19 09:59:38;;;;;;;0.55;0.28;;;22.80;99.90;;;;;;5092815;28;20024;-70
2023/07/19 10:02:04;;;;;;;0.03;0.03;;;22.40;99.90;;;;;;5088838;28;20032;-70
2023/07/19 10:04:34;;;;;;;0.30;0.30;;;22.10;99.90;;;;;;5091389;28;20503;-71
2023/07/19 10:07:21;;;;;;;0.00;0.00;;;22.70;99.90;;;;;;5092803;28;20044;-71
2023/07/19 10:09:59;;;;;;;0.10;0.10;;;22.20;99.90;;;;;;5093189;28;20028;-70
2023/07/19 10:12:25;;;;;;;0.10;0.10;;;22.30;99.90;;;;;;5093308;28;20119;-73
2023/07/19 10:14:59;;;;;;;0.17;0.17;;;22.40;99.90;;;;;;5092715;28;20435;-70
2023/07/19 10:17:26;;;;;;;0.60;0.10;;;22.00;99.90;;;;;;5092542;28;20036;-71
2023/07/19 10:20:14;;;;;;;0.10;0.10;;;22.80;99.90;;;;;;5091085;28;20097;-70
2023/07/19 10:23:01;;;;;;;3.03;0.15;;;22.90;99.90;;;;;;5092507;28;20035;-70
2023/07/19 10:25:36;;;;;;;0.00;0.00;;;23.10;99.90;;;;;;5092662;28;20427;-70
2023/07/19 10:28:09;;;;;;;0.35;0.28;;;22.80;99.90;;;;;;5092388;28;20077;-70
2023/07/19 10:30:56;;;;;;;0.00;0.00;;;22.20;99.90;;;;;;5092100;28;20089;-70
2023/07/19 10:33:23;;;;;;;2.40;0.77;;;21.80;99.90;;;;;;5092236;28;20039;-71
2023/07/19 10:35:51;;;;;;;0.50;0.50;;;21.40;99.90;;;;;;5092506;28;20038;-70
2023/07/19 10:38:21;;;;;;;10.88;1.08;;;21.60;99.90;;;;;;5092278;28;20114;-71
2023/07/19 10:40:57;;;;;;;0.85;0.52;;;21.60;99.90;;;;;;5092312;28;20017;-70
2023/07/19 10:43:27;;;;;;;0.43;0.38;;;21.90;99.90;;;;;;5092011;28;20035;-71
2023/07/19 10:45:53;;;;;;;0.40;0.40;;;21.80;99.90;;;;;;5092399;28;20036;-70
2023/07/19 10:48:29;;;;;;;5.03;0.57;;;21.90;99.90;;;;;;5086888;28;20056;-70
2023/07/19 10:50:57;;;;;;;0.85;0.20;;;22.40;99.90;;;;;;5093240;28;20016;-70
2023/07/19 10:53:23;;;;;;;0.50;0.50;;;23.40;99.90;;;;;;5096124;28;20039;-70
2023/07/19 10:55:56;;;;;;;0.85;0.30;;;23.30;99.90;;;;;;5094783;28;20043;-70
2023/07/19 10:58:24;;;;;;;0.75;0.30;;;23.30;99.90;;;;;;5095076;28;20024;-70
2023/07/19 11:00:50;;;;;;;0.82;0.70;;;23.00;99.90;;;;;;5095577;28;20036;-70
2023/07/19 11:03:16;;;;;;;1.23;0.73;;;22.80;99.90;;;;;;5095875;28;20035;-70
2023/07/19 11:05:49;;;;;;;0.35;0.35;;;23.10;99.90;;;;;;5095929;28;20056;-70
2023/07/19 11:08:20;;;;;;;2.70;1.63;;;22.90;99.90;;;;;;5095923;28;20035;-70
2023/07/19 11:10:47;;;;;;;;;;;22.40;99.90;;;;;;5095192;28;20104;-70
2023/07/19 11:13:13;;;;;;;0.90;0.75;;;22.10;99.90;;;;;;5095652;28;20003;-70
2023/07/19 11:15:46;;;;;;;2.60;0.77;;;22.40;99.90;;;;;;5095441;28;20052;-70
2023/07/19 11:18:11;;;;;;;1.27;0.82;;;22.30;99.90;;;;;;5095777;28;20036;-70
2023/07/19 11:20:39;;;;;;;2.25;1.52;;;21.80;99.90;;;;;;5095602;28;20022;-70
2023/07/19 11:23:07;;;;;;;0.60;0.60;;;21.40;99.90;;;;;;5095569;28;20097;-70
2023/07/19 11:25:34;;;;;;;0.22;0.20;;;21.40;99.90;;;;;;5094408;28;20036;-70
2023/07/19 11:27:59;;;;;;;0.82;0.55;;;21.20;99.90;;;;;;5095471;28;20020;-70
2023/07/19 11:30:39;;;;;;;0.43;0.43;;;21.20;99.90;;;;;;5095189;28;20553;-70
2023/07/19 11:33:06;;;;;;;0.73;0.50;;;22.20;99.90;;;;;;5095288;28;20089;-70
2023/07/19 11:35:32;;;;;;;3.47;0.80;;;22.70;99.90;;;;;;5095407;28;20036;-70
2023/07/19 11:37:58;;;;;;;1.38;0.40;;;22.60;99.90;;;;;;5095577;28;20409;-70
2023/07/19 11:40:25;;;;;;;0.10;0.10;;;22.90;99.90;;;;;;5095365;28;20027;-70
2023/07/19 11:42:58;;;;;;;2.58;1.10;;;23.10;99.90;;;;;;5095117;28;20050;-70
2023/07/19 11:45:28;;;;;;;4.78;0.60;;;22.60;99.90;;;;;;5093886;28;20380;-70
2023/07/19 11:48:02;;;;;;;0.00;0.00;;;22.30;99.90;;;;;;5089109;28;20107;-70
2023/07/19 11:50:28;;;;;;;2.83;0.90;;;22.20;99.90;;;;;;5088490;28;20119;-70
2023/07/19 11:52:57;;;;;;;0.65;0.60;;;22.40;99.90;;;;;;5093698;28;20043;-70
2023/07/19 11:55:24;;;;;;;2.45;1.02;;;22.70;99.90;;;;;;5095051;28;20084;-70
2023/07/19 11:57:51;;;;;;;0.90;0.70;;;22.80;99.90;;;;;;5092543;28;20077;-70
2023/07/19 12:00:18;;;;;;;0.20;0.15;;;22.70;99.90;;;;;;5094959;28;20032;-70
2023/07/19 12:02:46;;;;;;;7.90;1.38;;;22.90;99.90;;;;;;5094674;28;20503;-70
2023/07/19 12:05:14;;;;;;;0.63;0.63;;;22.60;99.90;;;;;;5094868;28;20036;-70
2023/07/19 12:07:40;;;;;;;1.27;0.55;;;22.70;99.90;;;;;;5093615;28;20020;-70
2023/07/19 12:10:07;;;;;;;1.23;0.93;;;22.80;99.90;;;;;;5094987;28;20036;-70
2023/07/19 12:12:33;;;;;;;0.20;0.20;;;22.70;99.90;;;;;;5094596;28;20133;-70
2023/07/19 12:15:06;;;;;;;4.07;0.60;;;23.00;99.90;;;;;;5094675;28;20489;-70
2023/07/19 12:17:32;;;;;;;0.45;0.45;;;23.00;99.90;;;;;;5094739;28;20040;-70
2023/07/19 12:19:59;;;;;;;0.75;0.63;;;22.80;99.90;;;;;;5094666;28;20383;-70
2023/07/19 12:22:27;;;;;;;0.50;0.47;;;22.90;99.90;;;;;;5094628;28;20085;-70
2023/07/19 12:24:52;;;;;;;5.57;0.30;;;23.30;99.90;;;;;;5094329;28;20079;-70
2023/07/19 12:27:18;;;;;;;4.03;0.57;;;23.80;99.90;;;;;;5094138;28;20085;-70
2023/07/19 12:29:44;;;;;;;1.08;0.40;;;24.40;99.90;;;;;;5094480;28;20028;-70
2023/07/19 12:32:11;;;;;;;0.65;0.38;;;24.00;99.90;;;;;;5093165;28;20030;-70
2023/07/19 12:34:36;;;;;;;2.15;1.17;;;23.30;99.90;;;;;;5094471;28;20024;-71
2023/07/19 12:37:03;;;;;;;0.55;0.52;;;22.80;99.90;;;;;;5094238;28;20476;-70
2023/07/19 12:39:29;;;;;;;0.00;0.00;;;22.70;99.90;;;;;;5093120;28;20124;-70
2023/07/19 12:41:55;;;;;;;1.85;1.27;;;22.40;99.90;;;;;;5092380;28;20035;-70
2023/07/19 12:44:21;;;;;;;0.35;0.32;;;22.40;99.90;;;;;;5094407;28;20044;-70
2023/07/19 12:46:50;;;;;;;1.95;0.50;;;22.30;99.90;;;;;;5092738;28;20099;-70
2023/07/19 12:49:21;;;;;;;0.10;0.10;;;22.30;99.90;;;;;;5079846;28;20492;-70